sensor_id;sensor_type;location;lat;lon;timestamp;pressure;altitude;pressure_sealevel;temperature;humidity
43125;BME280;49182;50.788;7.318;2023-01-27T00:00:49;101436.97;;;2.11;95.45
43125;BME280;49182;50.788;7.318;2023-01-27T00:03:16;101455.63;;;2.22;95.54
43125;BME280;49182;50.788;7.318;2023-01-27T00:05:42;101456.53;;;2.21;95.67
43125;BME280;49182;50.788;7.318;2023-01-27T00:08:09;101451.38;;;2.20;95.64
43125;BME280;49182;50.788;7.318;2023-01-27T00:10:36;101448.03;;;2.16;95.81
43125;BME280;49182;50.788;7.318;2023-01-27T00:13:03;101433.81;;;2.03;95.82
43125;BME280;49182;50.788;7.318;2023-01-27T00:15:31;101456.69;;;2.17;96.28
43125;BME280;49182;50.788;7.318;2023-01-27T00:17:59;101434.59;;;2.05;96.23
43125;BME280;49182;50.788;7.318;2023-01-27T00:20:26;101450.78;;;2.13;96.21
43125;BME280;49182;50.788;7.318;2023-01-27T00:22:53;101434.78;;;2.00;96.37
43125;BME280;49182;50.788;7.318;2023-01-27T00:25:21;101447.28;;;2.14;96.13
43125;BME280;49182;50.788;7.318;2023-01-27T00:27:47;101447.28;;;2.14;96.33
43125;BME280;49182;50.788;7.318;2023-01-27T00:30:14;101448.13;;;2.15;96.43
43125;BME280;49182;50.788;7.318;2023-01-27T00:32:41;101427.78;;;2.02;96.40
43125;BME280;49182;50.788;7.318;2023-01-27T00:35:09;101441.94;;;2.17;96.36
43125;BME280;49182;50.788;7.318;2023-01-27T00:37:35;101451.50;;;2.17;96.30
43125;BME280;49182;50.788;7.318;2023-01-27T00:40:05;101446.28;;;2.17;96.16
43125;BME280;49182;50.788;7.318;2023-01-27T00:42:32;101449.75;;;2.17;96.42
43125;BME280;49182;50.788;7.318;2023-01-27T00:44:59;101452.34;;;2.17;96.26
43125;BME280;49182;50.788;7.318;2023-01-27T00:47:25;101436.34;;;2.04;96.03
43125;BME280;49182;50.788;7.318;2023-01-27T00:49:52;101439.81;;;2.05;96.18
43125;BME280;49182;50.788;7.318;2023-01-27T00:52:20;101440.41;;;2.12;95.79
43125;BME280;49182;50.788;7.318;2023-01-27T00:54:46;101455.75;;;2.19;96.05
43125;BME280;49182;50.788;7.318;2023-01-27T00:57:13;101453.94;;;2.21;95.88
43125;BME280;49182;50.788;7.318;2023-01-27T00:59:39;101455.75;;;2.19;95.75
43125;BME280;49182;50.788;7.318;2023-01-27T01:02:06;101455.75;;;2.19;95.96
43125;BME280;49182;50.788;7.318;2023-01-27T01:04:33;101455.75;;;2.19;95.98
43125;BME280;49182;50.788;7.318;2023-01-27T01:06:59;101460.91;;;2.21;95.86
43125;BME280;49182;50.788;7.318;2023-01-27T01:09:28;101466.97;;;2.21;95.61
43125;BME280;49182;50.788;7.318;2023-01-27T01:11:54;101462.00;;;2.15;95.76
43125;BME280;49182;50.788;7.318;2023-01-27T01:14:21;101475.75;;;2.19;95.78
43125;BME280;49182;50.788;7.318;2023-01-27T01:16:47;101471.38;;;2.19;95.97
43125;BME280;49182;50.788;7.318;2023-01-27T01:19:14;101475.75;;;2.19;96.08
43125;BME280;49182;50.788;7.318;2023-01-27T01:21:41;101480.91;;;2.20;96.03
43125;BME280;49182;50.788;7.318;2023-01-27T01:24:08;101480.94;;;2.19;96.15
43125;BME280;49182;50.788;7.318;2023-01-27T01:26:36;101476.53;;;2.21;96.17
43125;BME280;49182;50.788;7.318;2023-01-27T01:29:04;101477.25;;;2.24;95.75
43125;BME280;49182;50.788;7.318;2023-01-27T01:31:31;101469.63;;;2.20;95.52
43125;BME280;49182;50.788;7.318;2023-01-27T01:33:57;101476.53;;;2.21;95.77
43125;BME280;49182;50.788;7.318;2023-01-27T01:36:24;101483.44;;;2.22;95.78
43125;BME280;49182;50.788;7.318;2023-01-27T01:38:53;101480.75;;;2.23;95.90
43125;BME280;49182;50.788;7.318;2023-01-27T01:41:21;101475.69;;;2.20;95.90
43125;BME280;49182;50.788;7.318;2023-01-27T01:43:50;101478.47;;;2.16;96.04
43125;BME280;49182;50.788;7.318;2023-01-27T01:46:17;101479.28;;;2.16;96.14
43125;BME280;49182;50.788;7.318;2023-01-27T01:48:47;101480.09;;;2.18;96.23
43125;BME280;49182;50.788;7.318;2023-01-27T01:51:18;101486.81;;;2.24;96.04
43125;BME280;49182;50.788;7.318;2023-01-27T01:53:50;101487.66;;;2.24;96.17
43125;BME280;49182;50.788;7.318;2023-01-27T01:56:19;101480.09;;;2.18;96.05
43125;BME280;49182;50.788;7.318;2023-01-27T01:58:49;101476.59;;;2.19;95.84
43125;BME280;49182;50.788;7.318;2023-01-27T02:01:17;101480.00;;;2.21;95.92
43125;BME280;49182;50.788;7.318;2023-01-27T02:03:47;101482.59;;;2.21;96.06
43125;BME280;49182;50.788;7.318;2023-01-27T02:06:15;101480.03;;;2.20;96.10
43125;BME280;49182;50.788;7.318;2023-01-27T02:08:44;101484.41;;;2.19;96.59
43125;BME280;49182;50.788;7.318;2023-01-27T02:11:11;101461.25;;;2.12;96.44
43125;BME280;49182;50.788;7.318;2023-01-27T02:13:38;101482.66;;;2.20;96.74
43125;BME280;49182;50.788;7.318;2023-01-27T02:16:09;101473.03;;;2.22;96.66
43125;BME280;49182;50.788;7.318;2023-01-27T02:18:37;101482.59;;;2.21;96.52
43125;BME280;49182;50.788;7.318;2023-01-27T02:21:05;101474.69;;;2.23;96.66
43125;BME280;49182;50.788;7.318;2023-01-27T02:23:52;101474.78;;;2.21;96.65
43125;BME280;49182;50.788;7.318;2023-01-27T02:26:28;101466.97;;;2.21;96.80
43125;BME280;49182;50.788;7.318;2023-01-27T02:28:57;101476.41;;;2.24;96.63
43125;BME280;49182;50.788;7.318;2023-01-27T02:31:25;101477.19;;;2.26;96.43
43125;BME280;49182;50.788;7.318;2023-01-27T02:33:56;101472.00;;;2.26;96.57
43125;BME280;49182;50.788;7.318;2023-01-27T02:36:26;101469.38;;;2.26;96.41
43125;BME280;49182;50.788;7.318;2023-01-27T02:38:57;101478.00;;;2.28;96.47
43125;BME280;49182;50.788;7.318;2023-01-27T02:41:31;101475.50;;;2.25;96.49
43125;BME280;49182;50.788;7.318;2023-01-27T02:43:59;101441.56;;;2.04;96.48
43125;BME280;49182;50.788;7.318;2023-01-27T02:46:26;101469.56;;;2.21;96.20
43125;BME280;49182;50.788;7.318;2023-01-27T02:48:53;101483.13;;;2.29;96.47
43125;BME280;49182;50.788;7.318;2023-01-27T02:51:20;101482.22;;;2.30;96.40
43125;BME280;49182;50.788;7.318;2023-01-27T02:53:47;101476.94;;;2.32;96.25
43125;BME280;49182;50.788;7.318;2023-01-27T02:56:14;101477.25;;;2.24;96.31
43125;BME280;49182;50.788;7.318;2023-01-27T02:58:43;101472.03;;;2.24;96.16
43125;BME280;49182;50.788;7.318;2023-01-27T03:01:14;101487.38;;;2.32;96.25
43125;BME280;49182;50.788;7.318;2023-01-27T03:03:40;101491.78;;;2.30;96.60
43125;BME280;49182;50.788;7.318;2023-01-27T03:06:07;101491.75;;;2.31;96.63
43125;BME280;49182;50.788;7.318;2023-01-27T03:08:34;101474.09;;;2.16;97.06
43125;BME280;49182;50.788;7.318;2023-01-27T03:11:03;101496.94;;;2.31;97.29
43125;BME280;49182;50.788;7.318;2023-01-27T03:13:30;101482.69;;;2.18;96.95
43125;BME280;49182;50.788;7.318;2023-01-27T03:15:59;101496.16;;;2.29;97.45
43125;BME280;49182;50.788;7.318;2023-01-27T03:18:26;101497.00;;;2.30;97.73
43125;BME280;49182;50.788;7.318;2023-01-27T03:20:59;101500.47;;;2.30;97.46
43125;BME280;49182;50.788;7.318;2023-01-27T03:23:27;101502.22;;;2.30;97.88
43125;BME280;49182;50.788;7.318;2023-01-27T03:25:54;101503.00;;;2.32;97.83
43125;BME280;49182;50.788;7.318;2023-01-27T03:28:21;101504.72;;;2.33;97.92
43125;BME280;49182;50.788;7.318;2023-01-27T03:31:06;101503.72;;;2.35;97.89
43125;BME280;49182;50.788;7.318;2023-01-27T03:33:42;101513.25;;;2.36;97.41
43125;BME280;49182;50.788;7.318;2023-01-27T03:36:44;101501.97;;;2.36;98.13
43125;BME280;49182;50.788;7.318;2023-01-27T03:39:13;101509.72;;;2.37;98.12
43125;BME280;49182;50.788;7.318;2023-01-27T03:41:40;101508.84;;;2.38;97.78
43125;BME280;49182;50.788;7.318;2023-01-27T03:44:08;101515.75;;;2.39;98.20
43125;BME280;49182;50.788;7.318;2023-01-27T03:46:36;101513.00;;;2.42;98.23
43125;BME280;49182;50.788;7.318;2023-01-27T03:49:02;101509.50;;;2.43;98.07
43125;BME280;49182;50.788;7.318;2023-01-27T03:51:29;101515.56;;;2.44;98.19
43125;BME280;49182;50.788;7.318;2023-01-27T03:53:56;101516.41;;;2.44;97.67
43125;BME280;49182;50.788;7.318;2023-01-27T03:56:22;101514.66;;;2.45;97.94
43125;BME280;49182;50.788;7.318;2023-01-27T03:58:49;101514.91;;;2.39;98.17
43125;BME280;49182;50.788;7.318;2023-01-27T04:01:17;101519.88;;;2.45;98.01
43125;BME280;49182;50.788;7.318;2023-01-27T04:03:46;101513.81;;;2.44;98.19
43125;BME280;49182;50.788;7.318;2023-01-27T04:06:15;101520.72;;;2.46;98.09
43125;BME280;49182;50.788;7.318;2023-01-27T04:08:43;101515.50;;;2.46;98.23
43125;BME280;49182;50.788;7.318;2023-01-27T04:11:09;101522.47;;;2.45;98.25
43125;BME280;49182;50.788;7.318;2023-01-27T04:13:36;101486.81;;;2.24;98.34
43125;BME280;49182;50.788;7.318;2023-01-27T04:16:03;101517.31;;;2.43;98.31
43125;BME280;49182;50.788;7.318;2023-01-27T04:18:29;101521.56;;;2.46;98.40
43125;BME280;49182;50.788;7.318;2023-01-27T04:20:57;101517.25;;;2.45;98.13
43125;BME280;49182;50.788;7.318;2023-01-27T04:23:24;101523.19;;;2.49;98.20
43125;BME280;49182;50.788;7.318;2023-01-27T04:25:51;101521.44;;;2.49;98.00
43125;BME280;49182;50.788;7.318;2023-01-27T04:28:17;101530.03;;;2.51;98.19
43125;BME280;49182;50.788;7.318;2023-01-27T04:31:03;101510.34;;;2.44;97.85
43125;BME280;49182;50.788;7.318;2023-01-27T04:33:29;101522.22;;;2.51;97.69
43125;BME280;49182;50.788;7.318;2023-01-27T04:35:57;101521.38;;;2.51;97.58
43125;BME280;49182;50.788;7.318;2023-01-27T04:38:24;101506.94;;;2.42;97.85
43125;BME280;49182;50.788;7.318;2023-01-27T04:40:50;101523.06;;;2.52;97.97
43125;BME280;49182;50.788;7.318;2023-01-27T04:43:17;101517.06;;;2.50;97.49
43125;BME280;49182;50.788;7.318;2023-01-27T04:45:46;101513.66;;;2.48;97.89
43125;BME280;49182;50.788;7.318;2023-01-27T04:48:12;101495.06;;;2.35;97.88
43125;BME280;49182;50.788;7.318;2023-01-27T04:50:39;101522.94;;;2.55;97.37
43125;BME280;49182;50.788;7.318;2023-01-27T04:53:07;101512.56;;;2.53;97.06
43125;BME280;49182;50.788;7.318;2023-01-27T04:55:33;101518.72;;;2.52;97.52
43125;BME280;49182;50.788;7.318;2023-01-27T04:58:00;101526.44;;;2.54;97.48
43125;BME280;49182;50.788;7.318;2023-01-27T05:00:27;101530.75;;;2.55;97.72
43125;BME280;49182;50.788;7.318;2023-01-27T05:02:53;101535.97;;;2.55;97.68
43125;BME280;49182;50.788;7.318;2023-01-27T05:05:20;101539.38;;;2.57;97.54
43125;BME280;49182;50.788;7.318;2023-01-27T05:07:46;101535.25;;;2.51;97.69
43125;BME280;49182;50.788;7.318;2023-01-27T05:10:15;101535.91;;;2.56;97.69
43125;BME280;49182;50.788;7.318;2023-01-27T05:12:42;101540.19;;;2.59;97.15
43125;BME280;49182;50.788;7.318;2023-01-27T05:15:08;101531.00;;;2.49;97.15
43125;BME280;49182;50.788;7.318;2023-01-27T05:17:36;101547.19;;;2.57;97.21
43125;BME280;49182;50.788;7.318;2023-01-27T05:20:02;101546.34;;;2.56;97.44
43125;BME280;49182;50.788;7.318;2023-01-27T05:22:29;101541.94;;;2.58;97.40
43125;BME280;49182;50.788;7.318;2023-01-27T05:24:56;101510.03;;;2.30;97.72
43125;BME280;49182;50.788;7.318;2023-01-27T05:27:24;101549.84;;;2.55;97.03
43125;BME280;49182;50.788;7.318;2023-01-27T05:29:50;101530.28;;;2.45;97.28
43125;BME280;49182;50.788;7.318;2023-01-27T05:32:17;101550.66;;;2.57;96.85
43125;BME280;49182;50.788;7.318;2023-01-27T05:34:43;101547.16;;;2.58;96.87
43125;BME280;49182;50.788;7.318;2023-01-27T05:37:10;101561.13;;;2.56;97.25
43125;BME280;49182;50.788;7.318;2023-01-27T05:39:36;101562.03;;;2.55;97.23
43125;BME280;49182;50.788;7.318;2023-01-27T05:42:03;101555.06;;;2.55;97.05
43125;BME280;49182;50.788;7.318;2023-01-27T05:44:31;101561.03;;;2.59;96.51
43125;BME280;49182;50.788;7.318;2023-01-27T05:46:58;101562.00;;;2.56;96.52
43125;BME280;49182;50.788;7.318;2023-01-27T05:49:24;101559.47;;;2.53;96.63
43125;BME280;49182;50.788;7.318;2023-01-27T05:51:51;101563.13;;;2.49;96.97
43125;BME280;49182;50.788;7.318;2023-01-27T05:54:18;101564.13;;;2.47;97.62
43125;BME280;49182;50.788;7.318;2023-01-27T05:56:44;101571.09;;;2.46;97.46
43125;BME280;49182;50.788;7.318;2023-01-27T05:59:11;101563.50;;;2.40;97.76
43125;BME280;49182;50.788;7.318;2023-01-27T06:01:39;101562.50;;;2.42;97.36
43125;BME280;49182;50.788;7.318;2023-01-27T06:04:06;101563.41;;;2.41;97.98
43125;BME280;49182;50.788;7.318;2023-01-27T06:06:33;101579.75;;;2.47;97.81
43125;BME280;49182;50.788;7.318;2023-01-27T06:09:00;101577.16;;;2.47;97.38
43125;BME280;49182;50.788;7.318;2023-01-27T06:11:27;101578.81;;;2.48;97.96
43125;BME280;49182;50.788;7.318;2023-01-27T06:13:54;101582.28;;;2.48;97.88
43125;BME280;49182;50.788;7.318;2023-01-27T06:16:21;101580.53;;;2.49;97.70
43125;BME280;49182;50.788;7.318;2023-01-27T06:18:50;101575.31;;;2.49;97.67
43125;BME280;49182;50.788;7.318;2023-01-27T06:21:17;101578.75;;;2.49;97.64
43125;BME280;49182;50.788;7.318;2023-01-27T06:23:43;101573.56;;;2.49;97.70
43125;BME280;49182;50.788;7.318;2023-01-27T06:26:12;101577.00;;;2.50;97.73
43125;BME280;49182;50.788;7.318;2023-01-27T06:28:40;101559.13;;;2.40;97.56
43125;BME280;49182;50.788;7.318;2023-01-27T06:31:08;101575.22;;;2.52;97.74
43125;BME280;49182;50.788;7.318;2023-01-27T06:33:35;101583.03;;;2.52;98.03
43125;BME280;49182;50.788;7.318;2023-01-27T06:36:06;101593.25;;;2.56;97.63
43125;BME280;49182;50.788;7.318;2023-01-27T06:38:34;101581.19;;;2.54;96.93
43125;BME280;49182;50.788;7.318;2023-01-27T06:41:00;101585.63;;;2.52;97.45
43125;BME280;49182;50.788;7.318;2023-01-27T06:43:27;101580.47;;;2.50;97.36
43125;BME280;49182;50.788;7.318;2023-01-27T06:45:54;101590.94;;;2.49;97.69
43125;BME280;49182;50.788;7.318;2023-01-27T06:48:21;101583.97;;;2.49;97.41
43125;BME280;49182;50.788;7.318;2023-01-27T06:50:48;101590.09;;;2.48;97.48
43125;BME280;49182;50.788;7.318;2023-01-27T06:53:16;101595.25;;;2.50;97.38
43125;BME280;49182;50.788;7.318;2023-01-27T06:55:42;101595.97;;;2.53;97.46
43125;BME280;49182;50.788;7.318;2023-01-27T06:58:09;101604.50;;;2.58;96.67
43125;BME280;49182;50.788;7.318;2023-01-27T07:00:37;101604.59;;;2.55;96.45
43125;BME280;49182;50.788;7.318;2023-01-27T07:03:04;101595.03;;;2.56;96.40
43125;BME280;49182;50.788;7.318;2023-01-27T07:05:31;101564.69;;;2.31;96.44
43125;BME280;49182;50.788;7.318;2023-01-27T07:07:58;101602.22;;;2.49;96.81
43125;BME280;49182;50.788;7.318;2023-01-27T07:10:26;101606.63;;;2.47;97.50
43125;BME280;49182;50.788;7.318;2023-01-27T07:13:02;101610.19;;;2.46;97.47
43125;BME280;49182;50.788;7.318;2023-01-27T07:15:29;101612.78;;;2.46;97.35
43125;BME280;49182;50.788;7.318;2023-01-27T07:17:56;101584.00;;;2.26;97.32
43125;BME280;49182;50.788;7.318;2023-01-27T07:20:23;101606.78;;;2.44;97.14
43125;BME280;49182;50.788;7.318;2023-01-27T07:22:50;101621.31;;;2.50;97.19
43125;BME280;49182;50.788;7.318;2023-01-27T07:25:16;101623.06;;;2.49;97.30
43125;BME280;49182;50.788;7.318;2023-01-27T07:27:44;101632.59;;;2.50;97.24
43125;BME280;49182;50.788;7.318;2023-01-27T07:30:12;101628.19;;;2.52;97.03
43125;BME280;49182;50.788;7.318;2023-01-27T07:32:39;101636.78;;;2.54;97.29
43125;BME280;49182;50.788;7.318;2023-01-27T07:35:06;101610.94;;;2.48;96.62
43125;BME280;49182;50.788;7.318;2023-01-27T07:37:33;101588.09;;;2.33;97.02
43125;BME280;49182;50.788;7.318;2023-01-27T07:40:01;101627.09;;;2.58;97.04
43125;BME280;49182;50.788;7.318;2023-01-27T07:42:28;101629.66;;;2.59;97.20
43125;BME280;49182;50.788;7.318;2023-01-27T07:44:56;101624.44;;;2.59;97.20
43125;BME280;49182;50.788;7.318;2023-01-27T07:47:23;101629.72;;;2.58;97.00
43125;BME280;49182;50.788;7.318;2023-01-27T07:49:49;101627.16;;;2.56;97.15
43125;BME280;49182;50.788;7.318;2023-01-27T07:52:16;101634.25;;;2.53;97.32
43125;BME280;49182;50.788;7.318;2023-01-27T07:54:42;101623.13;;;2.48;97.26
43125;BME280;49182;50.788;7.318;2023-01-27T07:57:09;101631.41;;;2.59;97.15
43125;BME280;49182;50.788;7.318;2023-01-27T07:59:36;101636.50;;;2.62;97.01
43125;BME280;49182;50.788;7.318;2023-01-27T08:02:04;101606.63;;;2.47;97.33
43125;BME280;49182;50.788;7.318;2023-01-27T08:04:30;101619.44;;;2.53;96.97
43125;BME280;49182;50.788;7.318;2023-01-27T08:07:16;101624.38;;;2.61;96.56
43125;BME280;49182;50.788;7.318;2023-01-27T08:09:43;101639.44;;;2.76;96.24
43125;BME280;49182;50.788;7.318;2023-01-27T08:12:09;101641.00;;;2.80;95.73
43125;BME280;49182;50.788;7.318;2023-01-27T08:14:36;101648.03;;;2.78;95.63
43125;BME280;49182;50.788;7.318;2023-01-27T08:17:04;101628.44;;;2.68;95.96
43125;BME280;49182;50.788;7.318;2023-01-27T08:19:31;101646.41;;;2.75;96.33
43125;BME280;49182;50.788;7.318;2023-01-27T08:21:58;101653.19;;;2.79;96.04
43125;BME280;49182;50.788;7.318;2023-01-27T08:24:24;101656.78;;;2.77;96.21
43125;BME280;49182;50.788;7.318;2023-01-27T08:26:51;101657.69;;;2.76;96.16
43125;BME280;49182;50.788;7.318;2023-01-27T08:29:17;101661.13;;;2.76;96.48
43125;BME280;49182;50.788;7.318;2023-01-27T08:31:44;101651.63;;;2.75;96.56
43125;BME280;49182;50.788;7.318;2023-01-27T08:34:12;101651.66;;;2.74;96.61
43125;BME280;49182;50.788;7.318;2023-01-27T08:36:39;101651.63;;;2.75;96.44
43125;BME280;49182;50.788;7.318;2023-01-27T08:39:06;101641.47;;;2.68;96.09
43125;BME280;49182;50.788;7.318;2023-01-27T08:41:33;101662.84;;;2.77;96.12
43125;BME280;49182;50.788;7.318;2023-01-27T08:44:00;101657.50;;;2.80;96.21
43125;BME280;49182;50.788;7.318;2023-01-27T08:46:27;101654.69;;;2.85;95.72
43125;BME280;49182;50.788;7.318;2023-01-27T08:48:53;101658.97;;;2.88;95.70
43125;BME280;49182;50.788;7.318;2023-01-27T08:51:21;101656.16;;;2.92;95.82
43125;BME280;49182;50.788;7.318;2023-01-27T08:53:48;101663.88;;;2.95;96.02
43125;BME280;49182;50.788;7.318;2023-01-27T08:56:15;101643.88;;;2.96;95.56
43125;BME280;49182;50.788;7.318;2023-01-27T08:58:42;101670.25;;;3.10;96.17
43125;BME280;49182;50.788;7.318;2023-01-27T09:01:08;101658.66;;;3.17;96.42
43125;BME280;49182;50.788;7.318;2023-01-27T09:03:36;101661.75;;;3.27;96.68
43125;BME280;49182;50.788;7.318;2023-01-27T09:06:03;101663.06;;;3.37;96.10
43125;BME280;49182;50.788;7.318;2023-01-27T09:08:32;101667.06;;;3.45;96.37
43125;BME280;49182;50.788;7.318;2023-01-27T09:10:58;101652.31;;;3.44;96.49
43125;BME280;49182;50.788;7.318;2023-01-27T09:13:25;101652.06;;;3.50;96.10
43125;BME280;49182;50.788;7.318;2023-01-27T09:15:51;101659.38;;;3.62;94.67
43125;BME280;49182;50.788;7.318;2023-01-27T09:18:19;101654.59;;;3.52;94.71
43125;BME280;49182;50.788;7.318;2023-01-27T09:20:46;101658.91;;;3.53;94.70
43125;BME280;49182;50.788;7.318;2023-01-27T09:23:12;101667.53;;;3.55;94.56
43125;BME280;49182;50.788;7.318;2023-01-27T09:25:40;101671.06;;;3.54;94.04
43125;BME280;49182;50.788;7.318;2023-01-27T09:28:07;101649.72;;;3.44;95.30
43125;BME280;49182;50.788;7.318;2023-01-27T09:30:33;101671.66;;;3.60;96.06
43125;BME280;49182;50.788;7.318;2023-01-27T09:33:00;101670.44;;;3.69;96.86
43125;BME280;49182;50.788;7.318;2023-01-27T09:35:29;101660.38;;;3.80;97.50
43125;BME280;49182;50.788;7.318;2023-01-27T09:37:58;101668.22;;;4.00;97.80
43125;BME280;49182;50.788;7.318;2023-01-27T09:40:30;101676.22;;;4.16;97.62
43125;BME280;49182;50.788;7.318;2023-01-27T09:43:18;101667.88;;;4.27;97.69
43125;BME280;49182;50.788;7.318;2023-01-27T09:46:15;101666.63;;;4.35;95.97
43125;BME280;49182;50.788;7.318;2023-01-27T09:48:54;101665.84;;;4.33;94.93
43125;BME280;49182;50.788;7.318;2023-01-27T09:51:36;101676.47;;;4.30;93.24
43125;BME280;49182;50.788;7.318;2023-01-27T09:54:28;101679.00;;;4.32;92.96
43125;BME280;49182;50.788;7.318;2023-01-27T09:57:08;101679.41;;;4.23;92.57
43125;BME280;49182;50.788;7.318;2023-01-27T10:00:04;101694.69;;;4.32;91.63
43125;BME280;49182;50.788;7.318;2023-01-27T10:02:48;101698.97;;;4.33;92.55
43125;BME280;49182;50.788;7.318;2023-01-27T10:08:29;101694.63;;;4.52;90.66
43125;BME280;49182;50.788;7.318;2023-01-27T10:11:05;101695.09;;;4.62;90.08
43125;BME280;49182;50.788;7.318;2023-01-27T10:13:40;101632.41;;;4.21;90.58
43125;BME280;49182;50.788;7.318;2023-01-27T10:16:21;101709.09;;;4.79;88.33
43125;BME280;49182;50.788;7.318;2023-01-27T10:19:04;101706.97;;;4.87;87.66
43125;BME280;49182;50.788;7.318;2023-01-27T10:21:37;101705.84;;;4.93;86.56
43125;BME280;49182;50.788;7.318;2023-01-27T10:24:14;101715.06;;;5.00;87.20
43125;BME280;49182;50.788;7.318;2023-01-27T10:26:49;101709.41;;;5.09;87.25
43125;BME280;49182;50.788;7.318;2023-01-27T10:29:22;101709.06;;;5.17;87.27
43125;BME280;49182;50.788;7.318;2023-01-27T10:31:55;101704.28;;;5.25;85.78
43125;BME280;49182;50.788;7.318;2023-01-27T10:34:26;101704.41;;;5.41;84.45
43125;BME280;49182;50.788;7.318;2023-01-27T10:37:02;101696.00;;;5.34;85.56
43125;BME280;49182;50.788;7.318;2023-01-27T10:39:36;101698.72;;;5.50;83.49
43125;BME280;49182;50.788;7.318;2023-01-27T10:42:14;101680.31;;;5.51;81.00
43125;BME280;49182;50.788;7.318;2023-01-27T10:45:01;101696.69;;;5.74;79.61
43125;BME280;49182;50.788;7.318;2023-01-27T10:47:40;101695.91;;;5.72;79.05
43125;BME280;49182;50.788;7.318;2023-01-27T10:50:16;101698.75;;;5.67;80.33
43125;BME280;49182;50.788;7.318;2023-01-27T10:52:48;101697.75;;;5.69;81.13
43125;BME280;49182;50.788;7.318;2023-01-27T10:55:19;101669.63;;;5.73;77.91
43125;BME280;49182;50.788;7.318;2023-01-27T10:57:54;101684.25;;;5.77;78.12
43125;BME280;49182;50.788;7.318;2023-01-27T11:00:28;101680.00;;;5.75;78.60
43125;BME280;49182;50.788;7.318;2023-01-27T11:03:22;101685.78;;;5.81;78.97
43125;BME280;49182;50.788;7.318;2023-01-27T11:05:53;101701.25;;;6.04;78.60
43125;BME280;49182;50.788;7.318;2023-01-27T11:08:24;101687.28;;;6.04;77.59
43125;BME280;49182;50.788;7.318;2023-01-27T11:10:53;101700.75;;;6.14;77.04
43125;BME280;49182;50.788;7.318;2023-01-27T11:13:20;101694.59;;;6.15;78.34
43125;BME280;49182;50.788;7.318;2023-01-27T11:15:47;101697.91;;;6.18;79.02
43125;BME280;49182;50.788;7.318;2023-01-27T11:18:18;101660.22;;;6.03;76.72
43125;BME280;49182;50.788;7.318;2023-01-27T11:20:48;101698.81;;;6.34;77.36
43125;BME280;49182;50.788;7.318;2023-01-27T11:23:22;101687.28;;;6.37;76.55
43125;BME280;49182;50.788;7.318;2023-01-27T11:25:54;101686.53;;;6.35;75.12
43125;BME280;49182;50.788;7.318;2023-01-27T11:28:27;101690.84;;;6.36;76.36
43125;BME280;49182;50.788;7.318;2023-01-27T11:31:01;101693.13;;;6.42;74.75
43125;BME280;49182;50.788;7.318;2023-01-27T11:33:41;101692.22;;;6.43;74.66
43125;BME280;49182;50.788;7.318;2023-01-27T11:36:13;101683.59;;;6.41;74.67
43125;BME280;49182;50.788;7.318;2023-01-27T11:38:40;101686.13;;;6.42;75.50
43125;BME280;49182;50.788;7.318;2023-01-27T11:41:06;101679.19;;;6.41;73.53
43125;BME280;49182;50.788;7.318;2023-01-27T11:43:34;101686.13;;;6.42;72.96
43125;BME280;49182;50.788;7.318;2023-01-27T11:46:04;101670.28;;;6.28;71.05
43125;BME280;49182;50.788;7.318;2023-01-27T11:48:36;101667.13;;;6.22;73.91
43125;BME280;49182;50.788;7.318;2023-01-27T11:51:04;101681.09;;;6.22;74.11
43125;BME280;49182;50.788;7.318;2023-01-27T11:53:35;101670.44;;;6.25;72.74
43125;BME280;49182;50.788;7.318;2023-01-27T11:56:06;101679.31;;;6.23;73.72
43125;BME280;49182;50.788;7.318;2023-01-27T11:58:39;101672.13;;;6.26;74.37
43125;BME280;49182;50.788;7.318;2023-01-27T12:01:11;101677.13;;;6.31;75.79
43125;BME280;49182;50.788;7.318;2023-01-27T12:03:47;101675.63;;;6.42;73.67
43125;BME280;49182;50.788;7.318;2023-01-27T12:06:16;101677.09;;;6.48;74.85
43125;BME280;49182;50.788;7.318;2023-01-27T12:08:50;101677.88;;;6.66;74.91
43125;BME280;49182;50.788;7.318;2023-01-27T12:11:19;101671.19;;;6.76;72.72
43125;BME280;49182;50.788;7.318;2023-01-27T12:13:48;101645.28;;;6.70;71.33
43125;BME280;49182;50.788;7.318;2023-01-27T12:16:15;101660.50;;;6.79;70.98
43125;BME280;49182;50.788;7.318;2023-01-27T12:18:53;101634.59;;;6.57;69.79
43125;BME280;49182;50.788;7.318;2023-01-27T12:21:32;101655.84;;;6.68;69.79
43125;BME280;49182;50.788;7.318;2023-01-27T12:24:01;101664.25;;;6.59;70.46
43125;BME280;49182;50.788;7.318;2023-01-27T12:26:33;101665.31;;;6.55;70.70
43125;BME280;49182;50.788;7.318;2023-01-27T12:29:04;101639.69;;;6.44;71.30
43125;BME280;49182;50.788;7.318;2023-01-27T12:31:43;101655.53;;;6.74;70.95
43125;BME280;49182;50.788;7.318;2023-01-27T12:34:19;101647.16;;;6.83;71.38
43125;BME280;49182;50.788;7.318;2023-01-27T12:36:48;101647.31;;;6.96;70.49
43125;BME280;49182;50.788;7.318;2023-01-27T12:39:40;101630.53;;;6.99;69.15
43125;BME280;49182;50.788;7.318;2023-01-27T12:42:34;101642.47;;;7.04;69.36
43125;BME280;49182;50.788;7.318;2023-01-27T12:45:17;101642.63;;;7.17;69.12
43125;BME280;49182;50.788;7.318;2023-01-27T12:47:55;101634.75;;;7.17;66.79
43125;BME280;49182;50.788;7.318;2023-01-27T12:50:24;101633.66;;;7.21;65.48
43125;BME280;49182;50.788;7.318;2023-01-27T12:52:53;101635.59;;;7.17;67.52
43125;BME280;49182;50.788;7.318;2023-01-27T12:55:31;101624.56;;;7.26;68.49
43125;BME280;49182;50.788;7.318;2023-01-27T12:57:59;101618.59;;;7.39;67.87
43125;BME280;49182;50.788;7.318;2023-01-27T13:00:26;101613.66;;;7.48;67.44
43125;BME280;49182;50.788;7.318;2023-01-27T13:03:02;101620.19;;;7.71;67.31
43125;BME280;49182;50.788;7.318;2023-01-27T13:05:35;101613.34;;;7.83;66.87
43125;BME280;49182;50.788;7.318;2023-01-27T13:08:02;101605.84;;;7.91;68.27
43125;BME280;49182;50.788;7.318;2023-01-27T13:10:31;101613.00;;;7.89;66.33
43125;BME280;49182;50.788;7.318;2023-01-27T13:12:58;101549.38;;;7.54;65.48
43125;BME280;49182;50.788;7.318;2023-01-27T13:15:27;101606.09;;;7.72;64.99